createdAt,value
2022-11-17T00:00:29.907Z,8.17
2022-11-17T00:02:57.806Z,8.30
2022-11-17T00:05:25.597Z,8.77
2022-11-17T00:07:53.353Z,8.70
2022-11-17T00:10:21.138Z,8.03
2022-11-17T00:13:07.775Z,7.73
2022-11-17T00:15:35.667Z,7.80
2022-11-17T00:18:20.724Z,7.67
2022-11-17T00:21:06.195Z,7.67
2022-11-17T00:23:48.003Z,7.17
2022-11-17T00:26:16.895Z,7.47
2022-11-17T00:28:46.312Z,6.83
2022-11-17T00:31:33.342Z,6.70
2022-11-17T00:34:07.672Z,7.90
2022-11-17T00:36:38.445Z,8.43
2022-11-17T00:39:07.302Z,8.50
2022-11-17T00:41:35.086Z,7.50
2022-11-17T00:44:04.597Z,8.40
2022-11-17T00:46:32.826Z,8.53
2022-11-17T00:49:00.627Z,7.40
2022-11-17T00:51:28.443Z,8.43
2022-11-17T00:53:56.684Z,9.37
2022-11-17T00:56:25.454Z,8.00
2022-11-17T00:58:53.814Z,9.17
2022-11-17T01:01:23.262Z,8.67
2022-11-17T01:03:51.092Z,8.60
2022-11-17T01:06:20.877Z,9.00
2022-11-17T01:08:49.176Z,9.50
2022-11-17T01:11:19.019Z,9.50
2022-11-17T01:13:48.579Z,9.47
2022-11-17T01:16:18.315Z,8.60
2022-11-17T01:18:50.227Z,8.80
2022-11-17T01:21:21.040Z,9.10
2022-11-17T01:23:50.213Z,9.00
2022-11-17T01:26:19.980Z,9.17
2022-11-17T01:28:48.634Z,9.43
2022-11-17T01:31:18.232Z,9.93
2022-11-17T01:33:48.078Z,7.40
2022-11-17T01:36:17.390Z,8.83
2022-11-17T01:38:45.847Z,8.63
2022-11-17T01:41:16.533Z,8.80
2022-11-17T01:43:45.988Z,8.57
2022-11-17T01:46:20.551Z,9.10
2022-11-17T01:48:52.127Z,8.77
2022-11-17T01:51:20.387Z,8.77
2022-11-17T01:53:50.243Z,8.23
2022-11-17T01:56:23.860Z,9.97
2022-11-17T01:58:56.606Z,9.17
2022-11-17T02:01:24.451Z,8.20
2022-11-17T02:03:53.715Z,8.50
2022-11-17T02:06:28.568Z,8.53
2022-11-17T02:08:57.402Z,8.77
2022-11-17T02:11:26.064Z,8.30
2022-11-17T02:13:56.248Z,8.23
2022-11-17T02:16:24.166Z,8.10
2022-11-17T02:18:53.437Z,8.13
2022-11-17T02:21:57.835Z,8.83
2022-11-17T02:24:48.690Z,7.93
2022-11-17T02:27:38.767Z,8.50
2022-11-17T02:30:08.676Z,9.17
2022-11-17T02:32:46.487Z,9.07
2022-11-17T02:35:24.689Z,9.37
2022-11-17T02:38:01.734Z,8.77
2022-11-17T02:40:34.498Z,8.40
2022-11-17T02:43:26.848Z,9.53
2022-11-17T02:45:59.978Z,8.83
2022-11-17T02:48:33.217Z,9.07
2022-11-17T02:51:03.091Z,7.80
2022-11-17T02:53:32.470Z,9.07
2022-11-17T02:56:02.749Z,7.63
2022-11-17T02:58:32.005Z,9.50
2022-11-17T03:01:31.905Z,8.13
2022-11-17T03:04:18.636Z,7.57
2022-11-17T03:06:53.427Z,8.13
2022-11-17T03:09:28.855Z,7.73
2022-11-17T03:12:06.317Z,8.17
2022-11-17T03:14:45.345Z,8.70
2022-11-17T03:17:19.308Z,7.53
2022-11-17T03:19:53.616Z,9.27
2022-11-17T03:22:25.440Z,8.40
2022-11-17T03:24:58.041Z,8.20
2022-11-17T03:27:29.989Z,9.00
2022-11-17T03:30:02.772Z,9.00
2022-11-17T03:32:34.733Z,7.83
2022-11-17T03:35:08.120Z,7.87
2022-11-17T03:37:40.480Z,7.87
2022-11-17T03:40:11.650Z,8.07
2022-11-17T03:42:42.906Z,8.57
2022-11-17T03:45:17.388Z,7.30
2022-11-17T03:47:45.980Z,8.10
2022-11-17T03:50:17.480Z,8.17
2022-11-17T03:52:46.575Z,7.53
2022-11-17T03:55:15.407Z,8.00
2022-11-17T03:57:51.002Z,7.40
2022-11-17T04:00:20.933Z,7.60
2022-11-17T04:02:55.030Z,7.27
2022-11-17T04:05:23.144Z,8.50
2022-11-17T04:07:51.056Z,6.97
2022-11-17T04:10:20.659Z,8.27
2022-11-17T04:13:06.488Z,7.17
2022-11-17T04:15:53.830Z,7.00
2022-11-17T04:18:22.502Z,7.10
2022-11-17T04:20:51.855Z,7.87
2022-11-17T04:23:19.782Z,7.27
2022-11-17T04:26:07.281Z,7.23
2022-11-17T04:28:40.088Z,7.40
2022-11-17T04:31:12.264Z,7.53
2022-11-17T04:33:41.936Z,7.23
2022-11-17T04:36:11.218Z,6.20
2022-11-17T04:38:42.207Z,5.93
2022-11-17T04:41:28.904Z,6.37
2022-11-17T04:43:57.267Z,6.17
2022-11-17T04:46:28.213Z,7.53
2022-11-17T04:48:56.512Z,6.30
2022-11-17T04:51:25.685Z,6.43
2022-11-17T04:53:53.860Z,5.80
2022-11-17T04:56:22.931Z,6.40
2022-11-17T04:58:51.440Z,6.33
2022-11-17T05:01:22.263Z,5.50
2022-11-17T05:03:53.792Z,6.50
2022-11-17T05:06:23.674Z,6.57
2022-11-17T05:08:55.402Z,6.00
2022-11-17T05:11:42.548Z,6.57
2022-11-17T05:14:10.927Z,6.37
2022-11-17T05:16:56.370Z,5.47
2022-11-17T05:19:28.140Z,6.07
2022-11-17T05:21:56.592Z,5.63
2022-11-17T05:24:23.641Z,6.07
2022-11-17T05:26:51.808Z,6.83
2022-11-17T05:29:21.520Z,5.63
2022-11-17T05:31:49.754Z,5.73
2022-11-17T05:34:18.916Z,5.33
2022-11-17T05:36:48.145Z,5.87
2022-11-17T05:39:16.287Z,5.50
2022-11-17T05:41:44.179Z,5.67
2022-11-17T05:44:12.051Z,6.10
2022-11-17T05:46:39.888Z,5.37
2022-11-17T05:49:07.835Z,5.57
2022-11-17T05:51:37.744Z,6.57
2022-11-17T05:54:07.016Z,6.27
2022-11-17T05:56:39.652Z,6.07
2022-11-17T05:59:23.341Z,5.40
2022-11-17T06:01:58.975Z,6.37
2022-11-17T06:04:26.980Z,6.10
2022-11-17T06:06:58.885Z,6.27
2022-11-17T06:09:32.313Z,6.43
2022-11-17T06:12:05.529Z,5.90
2022-11-17T06:14:34.353Z,6.87
2022-11-17T06:17:07.399Z,5.93
2022-11-17T06:19:39.604Z,6.57
2022-11-17T06:22:13.090Z,5.43
2022-11-17T06:24:43.820Z,6.43
2022-11-17T06:27:12.997Z,6.10
2022-11-17T06:29:44.712Z,5.73
2022-11-17T06:32:13.893Z,6.00
2022-11-17T06:34:42.283Z,6.20
2022-11-17T06:37:11.199Z,6.23
2022-11-17T06:39:39.126Z,6.30
2022-11-17T06:42:08.364Z,6.70
2022-11-17T06:44:36.245Z,7.00
2022-11-17T06:47:04.092Z,6.53
2022-11-17T06:49:31.940Z,6.60
2022-11-17T06:51:59.807Z,6.83
2022-11-17T06:54:27.706Z,6.10
2022-11-17T06:56:55.631Z,7.27
2022-11-17T06:59:24.971Z,7.00
2022-11-17T07:01:52.862Z,6.83
2022-11-17T07:04:20.778Z,6.10
2022-11-17T07:06:48.727Z,7.20
2022-11-17T07:09:16.685Z,7.57
2022-11-17T07:11:44.639Z,6.70
2022-11-17T07:14:12.517Z,7.80
2022-11-17T07:16:43.438Z,6.97
2022-11-17T07:19:11.655Z,7.77
2022-11-17T07:21:39.591Z,8.40
2022-11-17T07:24:08.676Z,6.97
2022-11-17T07:26:36.591Z,7.27
2022-11-17T07:29:04.777Z,7.47
2022-11-17T07:31:32.773Z,7.20
2022-11-17T07:34:02.070Z,7.93
2022-11-17T07:36:30.093Z,7.43
2022-11-17T07:38:58.047Z,7.80
2022-11-17T07:41:25.950Z,7.63
2022-11-17T07:43:53.930Z,8.47
2022-11-17T07:46:21.890Z,7.37
2022-11-17T07:48:49.794Z,7.77
2022-11-17T07:51:19.026Z,7.60
2022-11-17T07:53:46.991Z,7.80
2022-11-17T07:56:15.418Z,7.13
2022-11-17T07:58:43.438Z,6.80
2022-11-17T08:01:15.782Z,7.93
2022-11-17T08:03:44.408Z,7.10
2022-11-17T08:06:12.594Z,6.07
2022-11-17T08:08:42.016Z,6.83
2022-11-17T08:11:12.498Z,6.60
2022-11-17T08:13:41.379Z,6.67
2022-11-17T08:16:10.536Z,6.70
2022-11-17T08:18:38.741Z,7.43
2022-11-17T08:21:08.482Z,6.77
2022-11-17T08:23:37.411Z,6.23
2022-11-17T08:26:08.373Z,6.57
2022-11-17T08:28:36.607Z,6.17
2022-11-17T08:31:06.268Z,6.43
2022-11-17T08:33:34.587Z,6.23
2022-11-17T08:36:04.723Z,6.03
2022-11-17T08:38:32.762Z,6.10
2022-11-17T08:41:04.046Z,5.83
2022-11-17T08:43:33.867Z,6.17
2022-11-17T08:46:02.402Z,6.33
2022-11-17T08:48:31.687Z,6.10
2022-11-17T08:51:00.251Z,5.33
2022-11-17T08:53:28.208Z,6.03
2022-11-17T08:55:56.127Z,5.80
2022-11-17T08:58:24.085Z,5.20
2022-11-17T09:00:53.593Z,5.40
2022-11-17T09:03:21.559Z,4.63
2022-11-17T09:05:49.517Z,5.37
2022-11-17T09:11:06.750Z,4.97
2022-11-17T09:13:36.400Z,4.50
2022-11-17T09:16:07.249Z,4.90
2022-11-17T09:18:36.928Z,4.87
2022-11-17T09:21:07.149Z,4.90
2022-11-17T09:23:35.717Z,5.07
2022-11-17T09:26:07.166Z,4.73
2022-11-17T09:28:35.662Z,4.97
2022-11-17T09:31:09.159Z,4.43
2022-11-17T09:33:37.869Z,5.13
2022-11-17T09:36:07.239Z,4.17
2022-11-17T09:38:35.514Z,4.40
2022-11-17T09:41:13.305Z,4.60
2022-11-17T09:43:46.414Z,5.10
2022-11-17T09:46:21.125Z,3.93
2022-11-17T09:48:53.879Z,4.53
2022-11-17T09:51:26.163Z,4.00
2022-11-17T09:53:57.623Z,3.53
2022-11-17T09:56:28.241Z,3.80
2022-11-17T09:59:00.270Z,4.40
2022-11-17T10:01:30.333Z,4.70
2022-11-17T10:04:00.072Z,3.60
2022-11-17T10:06:30.210Z,4.00
2022-11-17T10:09:02.782Z,4.43
2022-11-17T10:11:33.327Z,4.30
2022-11-17T10:14:05.031Z,4.07
2022-11-17T10:16:34.557Z,4.50
2022-11-17T10:19:03.762Z,3.97
2022-11-17T10:21:32.315Z,8.53
2022-11-17T10:24:00.749Z,4.10
2022-11-17T10:26:28.734Z,3.50
2022-11-17T10:29:09.061Z,3.70
2022-11-17T10:31:46.828Z,4.37
2022-11-17T10:34:38.905Z,6.87
2022-11-17T10:37:27.851Z,5.97
2022-11-17T10:40:22.002Z,3.40
2022-11-17T10:43:00.722Z,3.07
2022-11-17T10:45:28.890Z,3.53
2022-11-17T10:48:11.606Z,2.90
2022-11-17T10:50:51.493Z,3.17
2022-11-17T10:53:46.360Z,3.23
2022-11-17T10:56:18.424Z,3.07
2022-11-17T10:58:59.274Z,3.07
2022-11-17T11:01:32.343Z,3.03
2022-11-17T11:04:01.835Z,3.20
2022-11-17T11:06:31.699Z,4.20
2022-11-17T11:09:02.009Z,4.20
2022-11-17T11:11:37.887Z,4.37
2022-11-17T11:14:14.435Z,3.50
2022-11-17T11:16:47.821Z,4.80
2022-11-17T11:19:21.423Z,3.53
2022-11-17T11:22:03.397Z,3.70
2022-11-17T11:24:42.977Z,3.70
2022-11-17T11:27:28.453Z,3.20
2022-11-17T11:30:03.111Z,3.60
2022-11-17T11:32:41.437Z,2.63
2022-11-17T11:35:49.798Z,3.70
2022-11-17T11:38:36.748Z,3.00
2022-11-17T11:41:19.631Z,2.90
2022-11-17T11:44:01.624Z,2.67
2022-11-17T11:46:40.578Z,2.60
2022-11-17T11:49:16.574Z,2.83
2022-11-17T11:51:49.806Z,2.53
2022-11-17T11:54:28.553Z,2.33
2022-11-17T11:56:56.609Z,2.40
2022-11-17T11:59:38.827Z,2.30
2022-11-17T12:02:24.135Z,2.10
2022-11-17T12:05:06.052Z,4.00
2022-11-17T12:07:44.750Z,4.17
2022-11-17T12:10:19.513Z,7.77
2022-11-17T12:12:48.037Z,6.70
2022-11-17T12:15:33.718Z,2.10
2022-11-17T12:18:04.762Z,2.60
2022-11-17T12:20:52.726Z,3.40
2022-11-17T12:23:39.081Z,1.47
2022-11-17T12:26:07.885Z,1.70
2022-11-17T12:28:38.140Z,1.20
2022-11-17T12:31:10.195Z,1.20
2022-11-17T12:34:11.314Z,1.57
2022-11-17T12:36:39.633Z,1.63
2022-11-17T12:39:53.225Z,1.53
2022-11-17T12:42:21.170Z,1.60
2022-11-17T12:44:57.962Z,1.60
2022-11-17T12:47:27.597Z,1.90
2022-11-17T12:50:23.457Z,1.50
2022-11-17T12:53:15.777Z,1.83
2022-11-17T12:55:59.173Z,1.60
2022-11-17T12:58:34.853Z,1.70
2022-11-17T13:01:10.865Z,1.53
2022-11-17T13:03:44.941Z,1.40
2022-11-17T13:09:06.053Z,1.60
2022-11-17T13:11:36.168Z,1.47
2022-11-17T13:14:12.123Z,1.80
2022-11-17T13:16:46.061Z,1.57
2022-11-17T13:19:39.216Z,1.50
2022-11-17T13:22:15.097Z,2.10
2022-11-17T13:24:45.114Z,1.70
2022-11-17T13:27:23.236Z,1.40
2022-11-17T13:29:51.557Z,0.87
2022-11-17T13:32:21.425Z,1.50
2022-11-17T13:34:52.199Z,2.20
2022-11-17T13:37:22.704Z,1.97
2022-11-17T13:39:58.753Z,1.80
2022-11-17T13:42:30.979Z,1.47
2022-11-17T13:45:01.605Z,1.07
2022-11-17T13:47:43.361Z,1.07
2022-11-17T13:50:34.489Z,0.70
2022-11-17T13:53:05.798Z,1.20
2022-11-17T13:55:35.258Z,0.70
2022-11-17T13:58:07.472Z,0.60
2022-11-17T14:00:35.711Z,0.90
2022-11-17T14:03:05.889Z,0.70
2022-11-17T14:05:34.418Z,0.60
2022-11-17T14:08:13.987Z,0.80
2022-11-17T14:10:42.597Z,0.80
2022-11-17T14:13:24.349Z,0.83
2022-11-17T14:15:58.296Z,0.77
2022-11-17T14:18:31.633Z,0.63
2022-11-17T14:21:15.129Z,0.50
2022-11-17T14:23:44.143Z,0.60
2022-11-17T14:26:19.413Z,0.40
2022-11-17T14:28:49.483Z,0.50
2022-11-17T14:31:17.781Z,1.67
2022-11-17T14:33:45.762Z,3.47
2022-11-17T14:36:15.921Z,3.10
2022-11-17T14:38:44.669Z,3.10
2022-11-17T14:41:12.577Z,2.80
2022-11-17T14:43:40.445Z,3.03
2022-11-17T14:46:17.329Z,2.50
2022-11-17T14:48:45.254Z,1.93
2022-11-17T14:51:15.293Z,3.07
2022-11-17T14:53:44.432Z,4.23
2022-11-17T14:56:15.966Z,2.13
2022-11-17T14:58:43.842Z,2.10
2022-11-17T15:01:17.274Z,2.47
2022-11-17T15:03:45.776Z,1.97
2022-11-17T15:06:19.359Z,1.70
2022-11-17T15:08:48.287Z,1.77
2022-11-17T15:11:18.693Z,1.40
2022-11-17T15:13:46.624Z,1.37
2022-11-17T15:16:15.880Z,1.20
2022-11-17T15:18:46.066Z,1.20
2022-11-17T15:21:14.785Z,1.03
2022-11-17T15:23:43.821Z,0.83
2022-11-17T15:26:15.074Z,1.10
2022-11-17T15:28:43.741Z,0.90
2022-11-17T15:31:13.462Z,0.87
2022-11-17T15:33:43.930Z,0.80
2022-11-17T15:36:14.862Z,0.70
2022-11-17T15:38:42.816Z,0.60
2022-11-17T15:41:12.268Z,1.13
2022-11-17T15:43:41.938Z,0.60
2022-11-17T15:46:11.088Z,0.93
2022-11-17T15:48:42.286Z,1.20
2022-11-17T15:51:13.301Z,1.17
2022-11-17T15:53:42.257Z,1.50
2022-11-17T15:56:12.261Z,1.67
2022-11-17T15:58:41.527Z,1.93
2022-11-17T16:01:14.532Z,1.40
2022-11-17T16:03:44.045Z,1.37
2022-11-17T16:06:14.089Z,1.27
2022-11-17T16:08:42.459Z,1.17
2022-11-17T16:11:11.842Z,1.13
2022-11-17T16:13:39.740Z,1.07
2022-11-17T16:16:09.021Z,1.63
2022-11-17T16:18:38.457Z,2.47
2022-11-17T16:21:07.868Z,2.30
2022-11-17T16:23:41.301Z,2.00
2022-11-17T16:26:10.400Z,2.23
2022-11-17T16:28:38.877Z,3.30
2022-11-17T16:31:14.684Z,2.33
2022-11-17T16:33:47.657Z,2.50
2022-11-17T16:36:15.592Z,2.23
2022-11-17T16:38:59.682Z,2.00
2022-11-17T16:41:30.444Z,2.30
2022-11-17T16:43:58.497Z,2.03
2022-11-17T16:46:28.664Z,3.97
2022-11-17T16:48:57.086Z,3.70
2022-11-17T16:51:25.314Z,5.97
2022-11-17T16:53:58.782Z,6.67
2022-11-17T16:56:26.836Z,4.97
2022-11-17T16:58:55.086Z,4.10
2022-11-17T17:01:25.007Z,3.47
2022-11-17T17:03:56.428Z,3.10
2022-11-17T17:06:24.582Z,3.10
2022-11-17T17:08:55.249Z,3.57
2022-11-17T17:11:25.263Z,2.73
2022-11-17T17:13:53.117Z,2.70
2022-11-17T17:16:21.364Z,2.80
2022-11-17T17:18:54.819Z,2.60
2022-11-17T17:21:23.250Z,2.60
2022-11-17T17:23:51.272Z,2.47
2022-11-17T17:26:22.209Z,2.73
2022-11-17T17:28:55.009Z,3.37
2022-11-17T17:31:24.124Z,3.20
2022-11-17T17:33:52.816Z,4.30
2022-11-17T17:36:22.502Z,3.73
2022-11-17T17:38:55.463Z,4.30
2022-11-17T17:41:25.860Z,4.57
2022-11-17T17:44:00.116Z,4.23
2022-11-17T17:46:30.561Z,3.63
2022-11-17T17:48:58.987Z,4.13
2022-11-17T17:51:28.325Z,4.60
2022-11-17T17:53:58.099Z,4.90
2022-11-17T17:56:26.255Z,3.60
2022-11-17T17:58:56.286Z,4.07
2022-11-17T18:01:27.638Z,3.47
2022-11-17T18:04:01.059Z,3.20
2022-11-17T18:06:29.465Z,4.03
2022-11-17T18:08:58.625Z,4.50
2022-11-17T18:11:26.628Z,4.47
2022-11-17T18:13:55.015Z,3.70
2022-11-17T18:16:26.639Z,4.20
2022-11-17T18:18:57.964Z,4.80
2022-11-17T18:21:27.013Z,4.10
2022-11-17T18:23:55.334Z,4.90
2022-11-17T18:26:24.874Z,3.50
2022-11-17T18:28:54.021Z,2.93
2022-11-17T18:31:24.442Z,3.30
2022-11-17T18:33:54.717Z,2.50
2022-11-17T18:36:23.471Z,2.23
2022-11-17T18:38:52.614Z,2.43
2022-11-17T18:41:22.108Z,2.85
2022-11-17T18:43:50.435Z,2.90
2022-11-17T18:46:19.917Z,2.33
2022-11-17T18:48:49.694Z,2.23
2022-11-17T18:51:21.110Z,2.10
2022-11-17T18:53:49.637Z,2.20
2022-11-17T18:56:19.569Z,2.20
2022-11-17T18:58:48.422Z,2.57
2022-11-17T19:01:18.197Z,2.60
2022-11-17T19:03:47.940Z,2.60
2022-11-17T19:06:18.995Z,2.37
2022-11-17T19:08:48.193Z,2.50
2022-11-17T19:11:17.019Z,2.73
2022-11-17T19:13:45.706Z,2.40
2022-11-17T19:16:15.760Z,2.53
2022-11-17T19:18:44.749Z,2.33
2022-11-17T19:21:14.655Z,2.00
2022-11-17T19:23:50.804Z,2.60
2022-11-17T19:26:21.641Z,3.73
2022-11-17T19:28:49.765Z,2.97
2022-11-17T19:31:19.744Z,2.97
2022-11-17T19:33:48.735Z,3.00
2022-11-17T19:36:18.486Z,3.00
2022-11-17T19:38:49.729Z,3.00
2022-11-17T19:41:19.910Z,3.60
2022-11-17T19:43:48.071Z,3.50
2022-11-17T19:46:17.888Z,3.50
2022-11-17T19:48:45.894Z,3.83
2022-11-17T19:51:16.538Z,3.40
2022-11-17T19:53:44.479Z,3.30
2022-11-17T19:56:14.073Z,3.07
2022-11-17T19:58:42.165Z,2.93
2022-11-17T20:01:12.339Z,2.73
2022-11-17T20:03:41.611Z,2.60
2022-11-17T20:06:10.434Z,3.10
2022-11-17T20:08:38.914Z,3.40
2022-11-17T20:11:09.148Z,3.70
2022-11-17T20:13:39.136Z,3.67
2022-11-17T20:16:11.991Z,3.50
2022-11-17T20:18:40.475Z,3.47
2022-11-17T20:21:09.674Z,4.57
2022-11-17T20:23:38.857Z,4.27
2022-11-17T20:26:07.884Z,4.30
2022-11-17T20:28:38.104Z,3.87
2022-11-17T20:31:10.276Z,3.37
2022-11-17T20:33:38.800Z,4.60
2022-11-17T20:36:07.653Z,4.20
2022-11-17T20:38:35.864Z,3.80
2022-11-17T20:41:04.941Z,3.70
2022-11-17T20:43:33.438Z,3.63
2022-11-17T20:46:03.480Z,3.97
2022-11-17T20:48:35.609Z,3.90
2022-11-17T20:51:05.603Z,4.40
2022-11-17T20:53:34.313Z,3.47
2022-11-17T20:56:05.899Z,3.20
2022-11-17T20:58:34.791Z,3.47
2022-11-17T21:01:09.564Z,4.23
2022-11-17T21:03:37.797Z,4.37
2022-11-17T21:06:06.572Z,4.40
2022-11-17T21:08:36.381Z,3.97
2022-11-17T21:11:06.497Z,3.83
2022-11-17T21:13:35.787Z,3.33
2022-11-17T21:16:10.469Z,3.30
2022-11-17T21:18:40.113Z,3.10
2022-11-17T21:21:09.448Z,2.43
2022-11-17T21:23:38.006Z,2.60
2022-11-17T21:26:07.327Z,2.47
2022-11-17T21:28:35.357Z,2.47
2022-11-17T21:31:06.421Z,2.80
2022-11-17T21:33:35.688Z,2.37
2022-11-17T21:36:04.398Z,2.53
2022-11-17T21:38:32.405Z,2.50
2022-11-17T21:41:03.672Z,2.50
2022-11-17T21:43:31.983Z,2.80
2022-11-17T21:46:02.519Z,2.80
2022-11-17T21:48:30.487Z,2.93
2022-11-17T21:51:00.003Z,2.33
2022-11-17T21:53:28.129Z,2.90
2022-11-17T21:56:01.574Z,2.50
2022-11-17T21:58:29.614Z,2.60
2022-11-17T22:00:57.623Z,2.80
2022-11-17T22:03:25.966Z,2.60
2022-11-17T22:05:58.003Z,2.70
2022-11-17T22:08:30.309Z,3.30
2022-11-17T22:10:58.197Z,2.83
2022-11-17T22:13:26.085Z,3.60
2022-11-17T22:15:53.965Z,2.80
2022-11-17T22:18:22.161Z,2.97
2022-11-17T22:20:52.136Z,2.97
2022-11-17T22:23:20.085Z,2.60
2022-11-17T22:25:55.714Z,2.63
2022-11-17T22:28:24.524Z,3.00
2022-11-17T22:30:53.490Z,2.80
2022-11-17T22:33:22.641Z,2.93
2022-11-17T22:35:50.686Z,2.37
2022-11-17T22:38:18.806Z,2.70
2022-11-17T22:40:46.706Z,2.40
2022-11-17T22:43:15.964Z,2.30
2022-11-17T22:45:43.987Z,2.23
2022-11-17T22:48:11.942Z,2.60
2022-11-17T22:50:39.898Z,2.50
2022-11-17T22:53:07.837Z,2.83
2022-11-17T22:55:36.137Z,2.70
2022-11-17T22:58:04.104Z,2.47
2022-11-17T23:00:33.444Z,2.63
2022-11-17T23:03:01.357Z,2.50
2022-11-17T23:05:29.274Z,2.80
2022-11-17T23:07:57.177Z,2.30
2022-11-17T23:10:25.072Z,2.03
2022-11-17T23:12:53.318Z,1.93
2022-11-17T23:15:21.693Z,1.97
2022-11-17T23:17:50.962Z,2.10
2022-11-17T23:20:18.919Z,1.93
2022-11-17T23:22:47.014Z,2.10
2022-11-17T23:25:14.894Z,1.80
2022-11-17T23:27:42.829Z,1.63
2022-11-17T23:30:11.860Z,1.80
2022-11-17T23:32:39.800Z,1.80
2022-11-17T23:35:10.145Z,1.23
2022-11-17T23:37:38.114Z,1.60
2022-11-17T23:40:07.140Z,1.60
2022-11-17T23:42:40.145Z,2.53
2022-11-17T23:45:11.889Z,2.00
2022-11-17T23:47:40.215Z,2.07
2022-11-17T23:50:10.441Z,2.30
2022-11-17T23:52:38.338Z,1.80
2022-11-17T23:55:06.983Z,1.77
2022-11-17T23:57:34.894Z,2.30
